createdAt,value
2022-09-16T00:01:58.069Z,20.30
2022-09-16T00:04:24.899Z,20.40
2022-09-16T00:06:51.709Z,20.40
2022-09-16T00:09:18.405Z,20.30
2022-09-16T00:11:45.301Z,20.30
2022-09-16T00:14:12.053Z,20.20
2022-09-16T00:16:38.834Z,20.40
2022-09-16T00:19:05.607Z,20.40
2022-09-16T00:21:32.893Z,20.40
2022-09-16T00:23:59.659Z,20.30
2022-09-16T00:26:26.460Z,20.30
2022-09-16T00:28:53.165Z,20.20
2022-09-16T00:31:20.095Z,20.20
2022-09-16T00:33:47.136Z,20.30
2022-09-16T00:36:15.133Z,20.30
2022-09-16T00:38:42.409Z,20.40
2022-09-16T00:41:13.410Z,20.40
2022-09-16T00:44:06.304Z,20.30
2022-09-16T00:46:40.381Z,20.20
2022-09-16T00:49:12.243Z,20.20
2022-09-16T00:51:39.898Z,20.00
2022-09-16T00:54:09.979Z,19.80
2022-09-16T00:56:38.523Z,19.70
2022-09-16T00:59:08.414Z,19.80
2022-09-16T01:01:35.611Z,19.90
2022-09-16T01:04:03.943Z,19.90
2022-09-16T01:06:30.976Z,19.90
2022-09-16T01:08:58.227Z,19.80
2022-09-16T01:11:24.925Z,19.70
2022-09-16T01:13:52.374Z,19.70
2022-09-16T01:16:30.064Z,19.70
2022-09-16T01:19:05.140Z,19.70
2022-09-16T01:21:45.936Z,19.70
2022-09-16T01:24:31.283Z,19.60
2022-09-16T01:27:17.385Z,19.60
2022-09-16T01:29:56.500Z,19.70
2022-09-16T01:32:35.357Z,19.60
2022-09-16T01:35:05.792Z,19.40
2022-09-16T01:38:07.880Z,19.30
2022-09-16T01:40:49.681Z,19.40
2022-09-16T01:43:34.986Z,19.40
2022-09-16T01:46:20.687Z,19.40
2022-09-16T01:48:51.663Z,19.40
2022-09-16T01:51:31.771Z,19.40
2022-09-16T01:53:58.437Z,19.40
2022-09-16T01:56:37.689Z,19.40
2022-09-16T01:59:26.041Z,19.20
2022-09-16T02:02:00.545Z,19.00
2022-09-16T02:04:30.190Z,19.00
2022-09-16T02:06:57.478Z,19.00
2022-09-16T02:09:30.749Z,19.00
2022-09-16T02:11:58.722Z,19.00
2022-09-16T02:14:27.171Z,19.00
2022-09-16T02:17:14.164Z,19.00
2022-09-16T02:19:43.397Z,18.90
2022-09-16T02:22:15.405Z,18.90
2022-09-16T02:24:43.423Z,18.90
2022-09-16T02:27:12.860Z,18.90
2022-09-16T02:29:41.833Z,18.80
2022-09-16T02:32:10.079Z,18.80
2022-09-16T02:34:42.233Z,18.70
2022-09-16T02:37:11.740Z,18.70
2022-09-16T02:39:40.146Z,18.80
2022-09-16T02:42:07.313Z,18.90
2022-09-16T02:44:34.404Z,18.80
2022-09-16T02:47:01.416Z,18.80
2022-09-16T02:49:35.121Z,18.90
2022-09-16T02:52:24.716Z,18.90
2022-09-16T02:54:57.229Z,18.90
2022-09-16T02:57:24.113Z,18.80
2022-09-16T02:59:50.856Z,18.80
2022-09-16T03:02:17.903Z,18.70
2022-09-16T03:04:44.820Z,18.80
2022-09-16T03:07:12.381Z,18.80
2022-09-16T03:09:41.747Z,18.80
2022-09-16T03:12:14.773Z,18.70
2022-09-16T03:15:00.113Z,18.60
2022-09-16T03:17:33.537Z,18.70
2022-09-16T03:20:15.400Z,18.70
2022-09-16T03:22:58.189Z,18.70
2022-09-16T03:25:34.220Z,18.80
2022-09-16T03:28:04.083Z,18.70
2022-09-16T03:30:33.429Z,18.70
2022-09-16T03:33:04.725Z,18.70
2022-09-16T03:35:38.658Z,18.70
2022-09-16T03:38:06.635Z,18.70
2022-09-16T03:40:34.053Z,18.70
2022-09-16T03:43:00.983Z,18.70
2022-09-16T03:45:27.741Z,18.70
2022-09-16T03:47:54.593Z,18.70
2022-09-16T03:50:21.956Z,18.70
2022-09-16T03:52:48.627Z,18.60
2022-09-16T03:55:17.095Z,18.70
2022-09-16T03:57:43.937Z,18.60
2022-09-16T04:00:11.480Z,18.70
2022-09-16T04:02:41.116Z,18.60
2022-09-16T04:05:08.876Z,18.60
2022-09-16T04:07:35.680Z,18.60
2022-09-16T04:10:02.486Z,18.60
2022-09-16T04:12:29.596Z,18.60
2022-09-16T04:14:56.573Z,18.60
2022-09-16T04:17:23.984Z,18.70
2022-09-16T04:19:51.495Z,18.70
2022-09-16T04:22:18.549Z,18.60
2022-09-16T04:24:45.313Z,18.60
2022-09-16T04:27:12.009Z,18.50
2022-09-16T04:29:38.688Z,18.30
2022-09-16T04:32:05.495Z,18.20
2022-09-16T04:34:32.541Z,18.30
2022-09-16T04:36:59.336Z,18.20
2022-09-16T04:39:26.108Z,18.20
2022-09-16T04:41:52.917Z,18.20
2022-09-16T04:44:19.750Z,18.10
2022-09-16T04:46:46.645Z,18.20
2022-09-16T04:49:13.433Z,18.30
2022-09-16T04:51:40.173Z,18.30
2022-09-16T04:54:06.918Z,18.10
2022-09-16T04:56:34.021Z,18.10
2022-09-16T04:59:02.240Z,18.20
2022-09-16T05:01:30.305Z,18.20
2022-09-16T05:03:58.740Z,18.40
2022-09-16T05:06:29.678Z,18.40
2022-09-16T05:08:56.655Z,18.50
2022-09-16T05:11:24.843Z,18.40
2022-09-16T05:13:51.877Z,18.40
2022-09-16T05:16:19.570Z,18.30
2022-09-16T05:18:47.064Z,18.40
2022-09-16T05:21:15.196Z,18.40
2022-09-16T05:23:46.710Z,18.60
2022-09-16T05:26:20.942Z,18.80
2022-09-16T05:28:48.214Z,18.80
2022-09-16T05:31:16.148Z,18.70
2022-09-16T05:33:43.933Z,18.80
2022-09-16T05:36:12.094Z,19.00
2022-09-16T05:38:38.897Z,19.20
2022-09-16T05:41:06.474Z,19.40
2022-09-16T05:43:34.029Z,19.60
2022-09-16T05:46:01.427Z,19.80
2022-09-16T05:48:28.223Z,20.00
2022-09-16T05:50:58.977Z,19.90
2022-09-16T05:53:26.086Z,20.00
2022-09-16T05:56:00.253Z,20.00
2022-09-16T05:58:28.009Z,20.20
2022-09-16T06:01:06.048Z,20.30
2022-09-16T06:03:33.579Z,20.50
2022-09-16T06:06:07.538Z,20.60
2022-09-16T06:08:35.660Z,20.70
2022-09-16T06:11:06.228Z,20.90
2022-09-16T06:13:33.036Z,21.10
2022-09-16T06:16:00.285Z,21.20
2022-09-16T06:18:28.783Z,21.30
2022-09-16T06:20:56.165Z,21.50
2022-09-16T06:23:23.284Z,21.60
2022-09-16T06:25:58.644Z,21.60
2022-09-16T06:28:25.337Z,21.80
2022-09-16T06:31:01.240Z,22.10
2022-09-16T06:33:28.362Z,22.60
2022-09-16T06:35:56.767Z,22.60
2022-09-16T06:38:23.979Z,22.50
2022-09-16T06:40:50.717Z,22.70
2022-09-16T06:43:17.449Z,23.10
2022-09-16T06:45:44.216Z,23.90
2022-09-16T06:48:11.539Z,24.70
2022-09-16T06:50:38.204Z,25.60
2022-09-16T06:53:04.944Z,26.30
2022-09-16T06:55:31.755Z,26.80
2022-09-16T06:57:58.550Z,25.90
2022-09-16T07:00:25.258Z,25.40
2022-09-16T07:02:52.029Z,25.00
2022-09-16T07:05:18.972Z,24.50
2022-09-16T07:07:45.667Z,24.30
2022-09-16T07:10:12.356Z,23.90
2022-09-16T07:12:39.099Z,23.70
2022-09-16T07:15:06.096Z,23.70
2022-09-16T07:17:32.883Z,23.60
2022-09-16T07:20:00.509Z,23.60
2022-09-16T07:22:32.774Z,23.90
2022-09-16T07:24:59.610Z,25.80
2022-09-16T07:27:26.367Z,29.10
2022-09-16T07:29:54.240Z,29.30
2022-09-16T07:32:21.073Z,28.60
2022-09-16T07:34:47.855Z,27.00
2022-09-16T07:37:14.902Z,26.20
2022-09-16T07:39:41.617Z,26.00
2022-09-16T07:42:08.329Z,25.70
2022-09-16T07:44:35.065Z,25.40
2022-09-16T07:47:01.952Z,25.30
2022-09-16T07:49:28.648Z,25.40
2022-09-16T07:51:55.698Z,25.70
2022-09-16T07:54:22.546Z,25.80
2022-09-16T07:56:49.324Z,25.90
2022-09-16T07:59:18.834Z,26.00
2022-09-16T08:01:46.940Z,26.00
2022-09-16T08:04:13.944Z,25.90
2022-09-16T08:06:41.064Z,25.80
2022-09-16T08:09:37.351Z,25.50
2022-09-16T08:11:54.736Z,25.50
2022-09-16T08:14:21.515Z,25.50
2022-09-16T08:16:51.443Z,25.50
2022-09-16T08:19:20.435Z,25.10
2022-09-16T08:21:47.169Z,25.20
2022-09-16T08:24:13.931Z,25.50
2022-09-16T08:26:41.027Z,25.60
2022-09-16T08:29:09.423Z,25.80
2022-09-16T08:31:37.695Z,26.40
2022-09-16T08:34:04.929Z,26.60
2022-09-16T08:36:33.529Z,26.80
2022-09-16T08:39:00.538Z,26.90
2022-09-16T08:41:45.743Z,26.90
2022-09-16T08:44:20.628Z,27.00
2022-09-16T08:46:52.512Z,27.00
2022-09-16T08:49:40.041Z,27.00
2022-09-16T08:52:12.327Z,27.20
2022-09-16T08:54:41.774Z,27.20
2022-09-16T08:57:12.470Z,27.20
2022-09-16T08:59:40.844Z,27.20
2022-09-16T09:02:19.320Z,27.40
2022-09-16T09:04:46.378Z,27.30
2022-09-16T09:07:26.915Z,27.30
2022-09-16T09:10:10.859Z,27.50
2022-09-16T09:12:47.099Z,27.50
2022-09-16T09:15:28.135Z,27.40
2022-09-16T09:18:16.114Z,27.20
2022-09-16T09:21:02.010Z,27.60
2022-09-16T09:23:44.222Z,27.60
2022-09-16T09:26:21.331Z,27.60
2022-09-16T09:29:00.156Z,27.60
2022-09-16T09:31:29.759Z,27.50
2022-09-16T09:33:59.423Z,27.70
2022-09-16T09:36:34.901Z,28.00
2022-09-16T09:39:13.207Z,27.80
2022-09-16T09:41:42.870Z,27.70
2022-09-16T09:44:12.492Z,27.80
2022-09-16T09:46:45.249Z,27.80
2022-09-16T09:49:19.037Z,28.00
2022-09-16T09:51:49.540Z,28.40
2022-09-16T09:54:25.179Z,28.70
2022-09-16T09:56:58.628Z,28.60
2022-09-16T09:59:31.760Z,28.30
2022-09-16T10:02:00.770Z,28.30
2022-09-16T10:04:35.647Z,28.30
2022-09-16T10:09:34.793Z,29.10
2022-09-16T10:12:01.968Z,29.00
2022-09-16T10:14:34.491Z,28.80
2022-09-16T10:17:03.006Z,28.70
2022-09-16T10:19:31.418Z,28.70
2022-09-16T10:22:11.882Z,28.30
2022-09-16T10:24:40.364Z,28.70
2022-09-16T10:27:21.257Z,29.30
2022-09-16T10:29:48.604Z,29.90
2022-09-16T10:32:19.334Z,29.60
2022-09-16T10:34:46.645Z,29.90
2022-09-16T10:37:13.621Z,29.80
2022-09-16T10:39:43.227Z,29.60
2022-09-16T10:42:18.146Z,29.60
2022-09-16T10:44:46.212Z,29.10
2022-09-16T10:47:18.444Z,28.70
2022-09-16T10:49:47.748Z,28.50
2022-09-16T10:52:19.101Z,28.70
2022-09-16T10:54:45.975Z,28.60
2022-09-16T10:57:22.445Z,28.30
2022-09-16T11:00:09.105Z,28.30
2022-09-16T11:02:54.732Z,28.40
2022-09-16T11:05:39.636Z,28.40
2022-09-16T11:08:12.207Z,27.80
2022-09-16T11:10:51.979Z,28.50
2022-09-16T11:13:21.460Z,28.90
2022-09-16T11:16:06.949Z,28.30
2022-09-16T11:18:36.632Z,28.20
2022-09-16T11:21:21.850Z,28.50
2022-09-16T11:23:54.779Z,29.10
2022-09-16T11:26:24.352Z,29.50
2022-09-16T11:29:09.611Z,29.70
2022-09-16T11:31:39.317Z,29.60
2022-09-16T11:34:08.966Z,29.40
2022-09-16T11:36:46.220Z,29.50
2022-09-16T11:39:31.863Z,29.90
2022-09-16T11:42:01.388Z,30.30
2022-09-16T11:44:30.952Z,29.60
2022-09-16T11:47:16.480Z,29.30
2022-09-16T11:49:46.209Z,29.10
2022-09-16T11:52:27.344Z,29.30
2022-09-16T11:55:18.386Z,29.20
2022-09-16T11:57:51.536Z,29.00
2022-09-16T12:00:19.219Z,28.80
2022-09-16T12:03:01.006Z,28.90
2022-09-16T12:05:30.813Z,28.90
2022-09-16T12:08:03.096Z,28.70
2022-09-16T12:10:48.599Z,28.70
2022-09-16T12:13:18.819Z,28.70
2022-09-16T12:15:48.786Z,28.70
2022-09-16T12:18:20.832Z,28.70
2022-09-16T12:20:53.167Z,28.60
2022-09-16T12:23:24.435Z,28.60
2022-09-16T12:26:01.046Z,28.80
2022-09-16T12:28:37.464Z,29.20
2022-09-16T12:31:07.005Z,29.40
2022-09-16T12:33:40.139Z,29.60
2022-09-16T12:36:08.876Z,29.60
2022-09-16T12:38:35.659Z,29.90
2022-09-16T12:41:02.421Z,29.40
2022-09-16T12:43:47.960Z,29.40
2022-09-16T12:46:35.218Z,29.30
2022-09-16T12:49:20.180Z,29.50
2022-09-16T12:52:05.851Z,29.30
2022-09-16T12:55:07.288Z,29.80
2022-09-16T12:57:58.148Z,29.60
2022-09-16T13:00:29.218Z,29.60
2022-09-16T13:02:57.818Z,30.00
2022-09-16T13:05:26.247Z,30.00
2022-09-16T13:07:56.257Z,29.80
2022-09-16T13:10:40.410Z,29.50
2022-09-16T13:13:18.384Z,29.50
2022-09-16T13:15:54.772Z,29.70
2022-09-16T13:18:28.542Z,29.80
2022-09-16T13:20:59.459Z,29.90
2022-09-16T13:23:28.185Z,29.80
2022-09-16T13:25:59.456Z,29.90
2022-09-16T13:28:32.377Z,30.30
2022-09-16T13:31:11.325Z,30.60
2022-09-16T13:33:43.676Z,30.40
2022-09-16T13:36:19.439Z,30.20
2022-09-16T13:38:46.962Z,30.10
2022-09-16T13:41:14.280Z,29.60
2022-09-16T13:43:46.815Z,29.10
2022-09-16T13:46:18.687Z,28.90
2022-09-16T13:48:51.923Z,29.30
2022-09-16T13:51:20.325Z,29.40
2022-09-16T13:53:49.271Z,29.40
2022-09-16T13:56:18.765Z,29.60
2022-09-16T13:58:45.477Z,30.00
2022-09-16T14:01:15.305Z,30.00
2022-09-16T14:03:41.999Z,30.20
2022-09-16T14:06:27.547Z,30.20
2022-09-16T14:08:54.277Z,30.40
2022-09-16T14:11:26.691Z,30.40
2022-09-16T14:14:05.235Z,30.10
2022-09-16T14:16:34.521Z,30.10
2022-09-16T14:19:04.893Z,30.30
2022-09-16T14:21:31.712Z,30.10
2022-09-16T14:24:19.062Z,29.60
2022-09-16T14:26:53.253Z,29.50
2022-09-16T14:29:20.341Z,29.90
2022-09-16T14:31:47.323Z,30.10
2022-09-16T14:34:16.096Z,29.50
2022-09-16T14:36:44.149Z,29.00
2022-09-16T14:39:12.336Z,28.90
2022-09-16T14:41:53.104Z,28.80
2022-09-16T14:44:20.006Z,29.10
2022-09-16T14:47:04.650Z,29.20
2022-09-16T14:49:37.140Z,29.40
2022-09-16T14:52:03.965Z,29.70
2022-09-16T14:54:31.189Z,29.70
2022-09-16T14:57:02.206Z,29.40
2022-09-16T14:59:31.197Z,29.10
2022-09-16T15:02:01.344Z,28.80
2022-09-16T15:04:30.538Z,28.60
2022-09-16T15:07:03.516Z,28.60
2022-09-16T15:09:38.058Z,28.80
2022-09-16T15:12:05.303Z,29.00
2022-09-16T15:14:32.276Z,29.20
2022-09-16T15:17:00.617Z,29.30
2022-09-16T15:19:38.885Z,29.40
2022-09-16T15:22:07.592Z,29.30
2022-09-16T15:24:35.922Z,29.50
2022-09-16T15:27:02.910Z,29.60
2022-09-16T15:29:32.038Z,29.40
2022-09-16T15:32:31.988Z,29.20
2022-09-16T15:35:17.323Z,29.30
2022-09-16T15:37:44.136Z,29.30
2022-09-16T15:40:21.404Z,29.40
2022-09-16T15:42:49.482Z,29.40
2022-09-16T15:45:17.918Z,29.20
2022-09-16T15:47:54.443Z,28.90
2022-09-16T15:50:21.799Z,29.00
2022-09-16T15:52:55.525Z,29.10
2022-09-16T15:55:31.391Z,29.00
2022-09-16T15:58:02.966Z,29.10
2022-09-16T16:00:49.640Z,28.70
2022-09-16T16:03:19.606Z,28.40
2022-09-16T16:05:52.869Z,28.20
2022-09-16T16:08:49.048Z,28.10
2022-09-16T16:11:20.796Z,27.90
2022-09-16T16:13:48.143Z,27.70
2022-09-16T16:16:15.716Z,27.60
2022-09-16T16:18:43.266Z,27.50
2022-09-16T16:21:11.605Z,27.40
2022-09-16T16:23:38.465Z,27.30
2022-09-16T16:26:06.114Z,27.30
2022-09-16T16:28:33.387Z,27.20
2022-09-16T16:31:10.099Z,27.10
2022-09-16T16:33:38.666Z,27.10
2022-09-16T16:36:07.229Z,27.00
2022-09-16T16:38:33.973Z,26.90
2022-09-16T16:41:00.801Z,26.70
2022-09-16T16:43:28.504Z,26.60
2022-09-16T16:45:58.307Z,26.60
2022-09-16T16:48:27.024Z,26.50
2022-09-16T16:51:01.401Z,26.50
2022-09-16T16:53:28.932Z,26.40
2022-09-16T16:56:02.536Z,26.30
2022-09-16T16:58:32.904Z,26.30
2022-09-16T17:01:10.171Z,26.20
2022-09-16T17:03:37.024Z,26.20
2022-09-16T17:06:04.237Z,26.10
2022-09-16T17:08:31.012Z,26.00
2022-09-16T17:11:07.450Z,26.00
2022-09-16T17:13:34.213Z,25.90
2022-09-16T17:16:01.127Z,25.90
2022-09-16T17:18:27.866Z,25.90
2022-09-16T17:21:00.531Z,25.90
2022-09-16T17:23:27.224Z,25.90
2022-09-16T17:25:53.957Z,25.90
2022-09-16T17:28:20.666Z,25.90
2022-09-16T17:30:47.555Z,25.90
2022-09-16T17:33:14.667Z,25.90
2022-09-16T17:35:41.804Z,25.90
2022-09-16T17:38:09.888Z,25.90
2022-09-16T17:40:36.675Z,25.80
2022-09-16T17:43:03.660Z,25.80
2022-09-16T17:45:31.932Z,25.70
2022-09-16T17:47:59.236Z,25.50
2022-09-16T17:50:25.985Z,25.30
2022-09-16T17:52:53.132Z,25.10
2022-09-16T17:55:19.882Z,24.90
2022-09-16T17:57:46.561Z,24.80
2022-09-16T18:00:13.664Z,24.70
2022-09-16T18:02:40.430Z,24.70
2022-09-16T18:05:07.601Z,24.70
2022-09-16T18:07:34.296Z,24.70
2022-09-16T18:10:01.049Z,24.70
2022-09-16T18:12:27.738Z,24.70
2022-09-16T18:14:54.431Z,24.70
2022-09-16T18:17:21.187Z,24.60
2022-09-16T18:19:47.911Z,24.60
2022-09-16T18:22:14.645Z,24.50
2022-09-16T18:24:41.464Z,24.50
2022-09-16T18:27:08.189Z,24.50
2022-09-16T18:29:35.521Z,24.40
2022-09-16T18:32:02.340Z,24.40
2022-09-16T18:34:33.338Z,24.30
2022-09-16T18:37:00.554Z,24.30
2022-09-16T18:39:27.244Z,24.20
2022-09-16T18:41:54.020Z,24.30
2022-09-16T18:44:23.653Z,24.30
2022-09-16T18:46:51.313Z,24.20
2022-09-16T18:49:18.873Z,24.10
2022-09-16T18:51:50.943Z,24.00
2022-09-16T18:54:28.806Z,24.00
2022-09-16T18:57:00.176Z,23.90
2022-09-16T18:59:28.688Z,23.80
2022-09-16T19:01:56.987Z,23.80
2022-09-16T19:04:25.563Z,23.90
2022-09-16T19:06:53.505Z,23.80
2022-09-16T19:09:21.625Z,23.90
2022-09-16T19:11:48.552Z,23.70
2022-09-16T19:14:15.895Z,23.60
2022-09-16T19:16:43.496Z,23.50
2022-09-16T19:19:11.786Z,23.50
2022-09-16T19:21:38.624Z,23.50
2022-09-16T19:24:06.730Z,23.60
2022-09-16T19:26:35.020Z,23.60
2022-09-16T19:29:02.101Z,23.60
2022-09-16T19:31:29.332Z,23.60
2022-09-16T19:33:56.332Z,23.50
2022-09-16T19:36:41.774Z,23.50
2022-09-16T19:39:09.067Z,23.40
2022-09-16T19:41:36.997Z,23.40
2022-09-16T19:44:05.317Z,23.40
2022-09-16T19:46:36.428Z,23.40
2022-09-16T19:49:03.776Z,23.50
2022-09-16T19:51:31.214Z,23.30
2022-09-16T19:53:58.473Z,23.40
2022-09-16T19:56:26.404Z,23.30
2022-09-16T19:58:53.471Z,23.30
2022-09-16T20:01:21.721Z,23.20
2022-09-16T20:03:49.435Z,23.00
2022-09-16T20:06:20.552Z,22.90
2022-09-16T20:08:49.272Z,23.00
2022-09-16T20:11:20.065Z,22.70
2022-09-16T20:13:54.285Z,22.50
2022-09-16T20:16:22.114Z,22.50
2022-09-16T20:18:49.019Z,22.40
2022-09-16T20:21:17.016Z,22.50
2022-09-16T20:23:45.089Z,22.50
2022-09-16T20:26:14.025Z,22.40
2022-09-16T20:28:44.450Z,22.30
2022-09-16T20:31:12.010Z,22.20
2022-09-16T20:33:39.082Z,22.30
2022-09-16T20:36:07.357Z,22.30
2022-09-16T20:38:35.736Z,22.20
2022-09-16T20:41:12.805Z,22.30
2022-09-16T20:43:39.722Z,22.20
2022-09-16T20:46:11.498Z,22.20
2022-09-16T20:48:38.792Z,22.30
2022-09-16T20:51:06.747Z,22.30
2022-09-16T20:53:37.359Z,22.20
2022-09-16T20:56:05.098Z,22.30
2022-09-16T20:58:32.996Z,22.10
2022-09-16T21:01:24.700Z,22.00
2022-09-16T21:03:52.761Z,22.30
2022-09-16T21:06:19.936Z,21.90
2022-09-16T21:08:46.949Z,21.70
2022-09-16T21:11:17.927Z,21.70
2022-09-16T21:13:45.800Z,22.00
2022-09-16T21:16:13.848Z,21.80
2022-09-16T21:18:41.676Z,21.70
2022-09-16T21:21:11.494Z,21.60
2022-09-16T21:23:38.427Z,21.60
2022-09-16T21:26:05.143Z,21.60
2022-09-16T21:28:33.304Z,21.60
2022-09-16T21:31:04.390Z,21.60
2022-09-16T21:33:31.805Z,21.60
2022-09-16T21:35:58.648Z,21.50
2022-09-16T21:38:26.978Z,21.40
2022-09-16T21:41:12.795Z,21.30
2022-09-16T21:43:48.083Z,21.30
2022-09-16T21:46:20.128Z,21.30
2022-09-16T21:48:47.460Z,21.30
2022-09-16T21:51:15.377Z,21.30
2022-09-16T21:53:42.767Z,21.20
2022-09-16T21:56:13.617Z,21.20
2022-09-16T21:58:40.806Z,21.10
2022-09-16T22:01:12.149Z,20.90
2022-09-16T22:03:39.769Z,21.00
2022-09-16T22:06:07.185Z,21.00
2022-09-16T22:08:34.102Z,20.90
2022-09-16T22:11:02.000Z,20.80
2022-09-16T22:13:29.996Z,21.10
2022-09-16T22:15:57.164Z,20.90
2022-09-16T22:18:24.676Z,21.00
2022-09-16T22:20:52.275Z,20.70
2022-09-16T22:23:19.328Z,20.80
2022-09-16T22:25:46.404Z,20.70
2022-09-16T22:28:13.454Z,20.50
2022-09-16T22:30:40.532Z,20.70
2022-09-16T22:33:07.383Z,20.60
2022-09-16T22:35:34.805Z,20.40
2022-09-16T22:38:02.320Z,20.20
2022-09-16T22:40:29.132Z,20.00
2022-09-16T22:42:55.925Z,20.00
2022-09-16T22:45:22.893Z,20.00
2022-09-16T22:47:49.593Z,19.90
2022-09-16T22:50:16.340Z,20.00
2022-09-16T22:52:43.017Z,20.00
2022-09-16T22:55:09.705Z,19.90
2022-09-16T22:57:36.375Z,19.90
2022-09-16T23:00:03.554Z,20.20
2022-09-16T23:02:30.222Z,20.00
2022-09-16T23:04:57.321Z,19.90
2022-09-16T23:07:25.205Z,20.00
2022-09-16T23:09:51.878Z,20.00
2022-09-16T23:12:18.547Z,20.00
2022-09-16T23:14:45.406Z,20.00
2022-09-16T23:17:12.169Z,20.00
2022-09-16T23:19:38.835Z,19.90
2022-09-16T23:22:05.592Z,20.10
2022-09-16T23:24:32.258Z,20.20
2022-09-16T23:26:58.921Z,20.20
2022-09-16T23:29:25.604Z,20.20
2022-09-16T23:31:52.287Z,20.30
2022-09-16T23:34:20.664Z,20.10
2022-09-16T23:36:48.056Z,20.10
2022-09-16T23:39:15.547Z,20.10
2022-09-16T23:41:43.320Z,20.10
2022-09-16T23:44:12.163Z,19.90
2022-09-16T23:46:39.184Z,20.00
2022-09-16T23:49:05.960Z,19.90
2022-09-16T23:51:32.782Z,19.90
2022-09-16T23:54:00.015Z,19.70
2022-09-16T23:56:27.204Z,19.80
2022-09-16T23:58:55.061Z,19.70
